sensor_id;sensor_type;location;lat;lon;timestamp;P1;durP1;ratioP1;P2;durP2;ratioP2
850;SDS011;412;51.400;7.480;2023-02-01T00:02:17;16.80;;;11.10;;
850;SDS011;412;51.400;7.480;2023-02-01T00:04:42;17.60;;;11.10;;
850;SDS011;412;51.400;7.480;2023-02-01T00:07:08;17.10;;;10.93;;
850;SDS011;412;51.400;7.480;2023-02-01T00:09:34;16.20;;;10.80;;
850;SDS011;412;51.400;7.480;2023-02-01T00:12:00;18.43;;;11.20;;
850;SDS011;412;51.400;7.480;2023-02-01T00:14:28;16.67;;;10.53;;
850;SDS011;412;51.400;7.480;2023-02-01T00:16:53;13.40;;;8.83;;
850;SDS011;412;51.400;7.480;2023-02-01T00:19:19;14.70;;;8.73;;
850;SDS011;412;51.400;7.480;2023-02-01T00:21:45;13.23;;;9.03;;
850;SDS011;412;51.400;7.480;2023-02-01T00:24:11;14.00;;;8.60;;
850;SDS011;412;51.400;7.480;2023-02-01T00:26:40;12.97;;;8.13;;
850;SDS011;412;51.400;7.480;2023-02-01T00:29:12;14.93;;;9.60;;
850;SDS011;412;51.400;7.480;2023-02-01T00:31:40;10.27;;;6.97;;
850;SDS011;412;51.400;7.480;2023-02-01T00:34:07;8.73;;;7.07;;
850;SDS011;412;51.400;7.480;2023-02-01T00:36:34;11.30;;;7.30;;
850;SDS011;412;51.400;7.480;2023-02-01T00:39:00;11.97;;;6.77;;
850;SDS011;412;51.400;7.480;2023-02-01T00:41:25;14.47;;;6.43;;
850;SDS011;412;51.400;7.480;2023-02-01T00:43:52;11.07;;;6.07;;
850;SDS011;412;51.400;7.480;2023-02-01T00:46:18;10.77;;;6.13;;
850;SDS011;412;51.400;7.480;2023-02-01T00:48:44;7.73;;;6.03;;
850;SDS011;412;51.400;7.480;2023-02-01T00:51:11;8.33;;;5.80;;
850;SDS011;412;51.400;7.480;2023-02-01T00:53:39;10.40;;;5.80;;
850;SDS011;412;51.400;7.480;2023-02-01T00:56:05;8.83;;;5.60;;
850;SDS011;412;51.400;7.480;2023-02-01T00:58:31;14.70;;;6.20;;
850;SDS011;412;51.400;7.480;2023-02-01T01:01:02;8.60;;;4.90;;
850;SDS011;412;51.400;7.480;2023-02-01T01:03:33;7.90;;;5.10;;
850;SDS011;412;51.400;7.480;2023-02-01T01:06:03;8.33;;;5.00;;
850;SDS011;412;51.400;7.480;2023-02-01T01:08:44;13.80;;;5.10;;
850;SDS011;412;51.400;7.480;2023-02-01T01:11:11;11.23;;;4.87;;
850;SDS011;412;51.400;7.480;2023-02-01T01:13:39;9.83;;;4.33;;
850;SDS011;412;51.400;7.480;2023-02-01T01:16:06;13.93;;;4.30;;
850;SDS011;412;51.400;7.480;2023-02-01T01:18:32;6.47;;;4.57;;
850;SDS011;412;51.400;7.480;2023-02-01T01:20:59;11.10;;;5.50;;
850;SDS011;412;51.400;7.480;2023-02-01T01:23:25;6.20;;;4.37;;
850;SDS011;412;51.400;7.480;2023-02-01T01:25:51;8.80;;;5.50;;
850;SDS011;412;51.400;7.480;2023-02-01T01:28:17;11.60;;;5.00;;
850;SDS011;412;51.400;7.480;2023-02-01T01:30:43;7.67;;;4.57;;
850;SDS011;412;51.400;7.480;2023-02-01T01:33:09;6.57;;;4.20;;
850;SDS011;412;51.400;7.480;2023-02-01T01:35:34;12.50;;;5.70;;
850;SDS011;412;51.400;7.480;2023-02-01T01:38:00;9.03;;;4.70;;
850;SDS011;412;51.400;7.480;2023-02-01T01:40:27;9.17;;;5.80;;
850;SDS011;412;51.400;7.480;2023-02-01T01:42:53;7.30;;;5.57;;
850;SDS011;412;51.400;7.480;2023-02-01T01:45:22;14.10;;;5.90;;
850;SDS011;412;51.400;7.480;2023-02-01T01:47:48;8.70;;;5.50;;
850;SDS011;412;51.400;7.480;2023-02-01T01:50:26;8.03;;;5.30;;
850;SDS011;412;51.400;7.480;2023-02-01T01:52:55;9.17;;;5.70;;
850;SDS011;412;51.400;7.480;2023-02-01T01:55:24;10.30;;;6.00;;
850;SDS011;412;51.400;7.480;2023-02-01T01:57:55;10.33;;;6.17;;
850;SDS011;412;51.400;7.480;2023-02-01T02:00:25;13.00;;;6.90;;
850;SDS011;412;51.400;7.480;2023-02-01T02:02:53;11.90;;;6.67;;
850;SDS011;412;51.400;7.480;2023-02-01T02:05:23;9.30;;;6.30;;
850;SDS011;412;51.400;7.480;2023-02-01T02:07:50;14.80;;;7.57;;
850;SDS011;412;51.400;7.480;2023-02-01T02:10:18;10.23;;;6.27;;
850;SDS011;412;51.400;7.480;2023-02-01T02:12:45;10.63;;;6.90;;
850;SDS011;412;51.400;7.480;2023-02-01T02:15:14;12.87;;;6.43;;
850;SDS011;412;51.400;7.480;2023-02-01T02:23:09;10.67;;;5.93;;
850;SDS011;412;51.400;7.480;2023-02-01T02:33:57;10.33;;;6.50;;
850;SDS011;412;51.400;7.480;2023-02-01T02:47:33;16.20;;;5.40;;
850;SDS011;412;51.400;7.480;2023-02-01T02:53:19;8.83;;;4.33;;
850;SDS011;412;51.400;7.480;2023-02-01T02:56:08;7.30;;;4.50;;
850;SDS011;412;51.400;7.480;2023-02-01T02:58:55;13.43;;;5.03;;
850;SDS011;412;51.400;7.480;2023-02-01T03:01:41;9.10;;;4.47;;
850;SDS011;412;51.400;7.480;2023-02-01T03:04:26;9.00;;;4.73;;
850;SDS011;412;51.400;7.480;2023-02-01T03:06:53;9.30;;;4.20;;
850;SDS011;412;51.400;7.480;2023-02-01T03:09:21;10.80;;;4.87;;
850;SDS011;412;51.400;7.480;2023-02-01T03:11:52;17.20;;;4.90;;
850;SDS011;412;51.400;7.480;2023-02-01T03:14:42;11.13;;;4.40;;
850;SDS011;412;51.400;7.480;2023-02-01T03:17:13;6.10;;;4.57;;
850;SDS011;412;51.400;7.480;2023-02-01T03:19:43;10.17;;;4.97;;
850;SDS011;412;51.400;7.480;2023-02-01T03:22:24;9.27;;;5.10;;
850;SDS011;412;51.400;7.480;2023-02-01T03:24:59;7.37;;;3.67;;
850;SDS011;412;51.400;7.480;2023-02-01T03:27:35;12.63;;;3.90;;
850;SDS011;412;51.400;7.480;2023-02-01T03:32:34;8.77;;;3.90;;
850;SDS011;412;51.400;7.480;2023-02-01T03:35:23;11.33;;;3.80;;
850;SDS011;412;51.400;7.480;2023-02-01T03:38:01;7.83;;;3.97;;
850;SDS011;412;51.400;7.480;2023-02-01T03:41:00;13.60;;;4.57;;
850;SDS011;412;51.400;7.480;2023-02-01T03:43:34;9.90;;;4.50;;
850;SDS011;412;51.400;7.480;2023-02-01T03:46:09;5.30;;;3.80;;
850;SDS011;412;51.400;7.480;2023-02-01T03:48:42;9.90;;;4.50;;
850;SDS011;412;51.400;7.480;2023-02-01T03:51:09;12.40;;;4.20;;
850;SDS011;412;51.400;7.480;2023-02-01T03:53:36;7.70;;;3.90;;
850;SDS011;412;51.400;7.480;2023-02-01T03:56:03;6.27;;;4.10;;
850;SDS011;412;51.400;7.480;2023-02-01T03:58:30;9.43;;;4.47;;
850;SDS011;412;51.400;7.480;2023-02-01T04:00:57;9.10;;;4.30;;
850;SDS011;412;51.400;7.480;2023-02-01T04:03:25;12.70;;;4.30;;
850;SDS011;412;51.400;7.480;2023-02-01T04:05:52;13.50;;;4.60;;
850;SDS011;412;51.400;7.480;2023-02-01T04:08:19;14.43;;;4.70;;
850;SDS011;412;51.400;7.480;2023-02-01T04:10:45;8.70;;;4.17;;
850;SDS011;412;51.400;7.480;2023-02-01T04:13:11;8.23;;;3.87;;
850;SDS011;412;51.400;7.480;2023-02-01T04:15:37;7.00;;;4.33;;
850;SDS011;412;51.400;7.480;2023-02-01T04:18:03;11.17;;;4.50;;
850;SDS011;412;51.400;7.480;2023-02-01T04:20:28;6.13;;;3.70;;
850;SDS011;412;51.400;7.480;2023-02-01T04:22:54;8.37;;;3.97;;
850;SDS011;412;51.400;7.480;2023-02-01T04:25:20;7.57;;;4.47;;
850;SDS011;412;51.400;7.480;2023-02-01T04:27:46;8.57;;;4.80;;
850;SDS011;412;51.400;7.480;2023-02-01T04:30:12;7.87;;;5.80;;
850;SDS011;412;51.400;7.480;2023-02-01T04:32:38;8.97;;;5.33;;
850;SDS011;412;51.400;7.480;2023-02-01T04:35:05;5.70;;;3.80;;
850;SDS011;412;51.400;7.480;2023-02-01T04:37:31;6.60;;;4.80;;
850;SDS011;412;51.400;7.480;2023-02-01T04:39:57;7.20;;;5.20;;
850;SDS011;412;51.400;7.480;2023-02-01T04:42:23;15.20;;;5.40;;
850;SDS011;412;51.400;7.480;2023-02-01T04:44:48;8.33;;;4.73;;
850;SDS011;412;51.400;7.480;2023-02-01T04:47:14;8.83;;;4.43;;
850;SDS011;412;51.400;7.480;2023-02-01T04:49:40;7.67;;;5.20;;
850;SDS011;412;51.400;7.480;2023-02-01T04:52:07;7.70;;;4.70;;
850;SDS011;412;51.400;7.480;2023-02-01T04:54:33;10.90;;;4.57;;
850;SDS011;412;51.400;7.480;2023-02-01T04:56:59;9.40;;;4.07;;
850;SDS011;412;51.400;7.480;2023-02-01T04:59:25;15.47;;;4.70;;
850;SDS011;412;51.400;7.480;2023-02-01T05:01:50;10.83;;;4.37;;
850;SDS011;412;51.400;7.480;2023-02-01T05:04:16;9.30;;;4.17;;
850;SDS011;412;51.400;7.480;2023-02-01T05:06:43;12.50;;;5.30;;
850;SDS011;412;51.400;7.480;2023-02-01T05:09:10;8.93;;;4.50;;
850;SDS011;412;51.400;7.480;2023-02-01T05:11:38;10.73;;;4.87;;
850;SDS011;412;51.400;7.480;2023-02-01T05:14:22;11.00;;;4.73;;
850;SDS011;412;51.400;7.480;2023-02-01T05:16:48;11.43;;;5.77;;
850;SDS011;412;51.400;7.480;2023-02-01T05:19:14;8.53;;;5.03;;
850;SDS011;412;51.400;7.480;2023-02-01T05:21:39;14.13;;;5.93;;
850;SDS011;412;51.400;7.480;2023-02-01T05:24:06;7.30;;;5.17;;
850;SDS011;412;51.400;7.480;2023-02-01T05:26:42;11.10;;;5.87;;
850;SDS011;412;51.400;7.480;2023-02-01T05:29:08;18.97;;;5.80;;
850;SDS011;412;51.400;7.480;2023-02-01T05:31:35;12.30;;;5.30;;
850;SDS011;412;51.400;7.480;2023-02-01T05:34:01;13.17;;;5.87;;
850;SDS011;412;51.400;7.480;2023-02-01T05:36:27;9.50;;;4.43;;
850;SDS011;412;51.400;7.480;2023-02-01T05:38:53;17.97;;;4.73;;
850;SDS011;412;51.400;7.480;2023-02-01T05:41:18;12.77;;;4.90;;
850;SDS011;412;51.400;7.480;2023-02-01T05:43:44;8.87;;;5.90;;
850;SDS011;412;51.400;7.480;2023-02-01T05:46:10;11.93;;;5.87;;
850;SDS011;412;51.400;7.480;2023-02-01T05:48:38;9.63;;;4.70;;
850;SDS011;412;51.400;7.480;2023-02-01T05:51:07;7.63;;;4.47;;
850;SDS011;412;51.400;7.480;2023-02-01T05:53:33;9.47;;;5.20;;
850;SDS011;412;51.400;7.480;2023-02-01T05:55:58;13.80;;;5.80;;
850;SDS011;412;51.400;7.480;2023-02-01T05:58:24;11.67;;;5.90;;
850;SDS011;412;51.400;7.480;2023-02-01T06:00:50;8.87;;;5.00;;
850;SDS011;412;51.400;7.480;2023-02-01T06:03:15;7.57;;;5.40;;
850;SDS011;412;51.400;7.480;2023-02-01T06:05:43;11.83;;;5.13;;
850;SDS011;412;51.400;7.480;2023-02-01T06:08:09;7.80;;;4.30;;
850;SDS011;412;51.400;7.480;2023-02-01T06:10:35;11.57;;;4.90;;
850;SDS011;412;51.400;7.480;2023-02-01T06:13:01;12.27;;;5.67;;
850;SDS011;412;51.400;7.480;2023-02-01T06:15:28;15.63;;;6.40;;
850;SDS011;412;51.400;7.480;2023-02-01T06:17:53;11.30;;;4.87;;
850;SDS011;412;51.400;7.480;2023-02-01T06:20:19;12.73;;;5.00;;
850;SDS011;412;51.400;7.480;2023-02-01T06:22:45;7.33;;;4.23;;
850;SDS011;412;51.400;7.480;2023-02-01T06:25:11;11.30;;;4.10;;
850;SDS011;412;51.400;7.480;2023-02-01T06:27:37;10.43;;;5.60;;
850;SDS011;412;51.400;7.480;2023-02-01T06:30:03;12.63;;;6.00;;
850;SDS011;412;51.400;7.480;2023-02-01T06:32:31;11.67;;;5.90;;
850;SDS011;412;51.400;7.480;2023-02-01T06:34:57;10.90;;;4.33;;
850;SDS011;412;51.400;7.480;2023-02-01T06:37:23;11.87;;;5.33;;
850;SDS011;412;51.400;7.480;2023-02-01T06:39:50;16.90;;;6.50;;
850;SDS011;412;51.400;7.480;2023-02-01T06:42:16;16.00;;;6.10;;
850;SDS011;412;51.400;7.480;2023-02-01T06:44:42;14.23;;;5.77;;
850;SDS011;412;51.400;7.480;2023-02-01T06:47:08;13.80;;;5.37;;
850;SDS011;412;51.400;7.480;2023-02-01T06:49:34;12.63;;;6.10;;
850;SDS011;412;51.400;7.480;2023-02-01T06:51:59;9.87;;;5.13;;
850;SDS011;412;51.400;7.480;2023-02-01T06:54:26;12.47;;;5.10;;
850;SDS011;412;51.400;7.480;2023-02-01T06:56:52;11.17;;;5.07;;
850;SDS011;412;51.400;7.480;2023-02-01T06:59:18;10.33;;;5.50;;
850;SDS011;412;51.400;7.480;2023-02-01T07:01:44;7.47;;;4.50;;
850;SDS011;412;51.400;7.480;2023-02-01T07:04:10;7.00;;;4.40;;
850;SDS011;412;51.400;7.480;2023-02-01T07:06:37;15.63;;;5.47;;
850;SDS011;412;51.400;7.480;2023-02-01T07:09:03;9.60;;;5.37;;
850;SDS011;412;51.400;7.480;2023-02-01T07:11:29;11.77;;;6.20;;
850;SDS011;412;51.400;7.480;2023-02-01T07:13:55;12.20;;;5.10;;
850;SDS011;412;51.400;7.480;2023-02-01T07:16:21;11.03;;;5.40;;
850;SDS011;412;51.400;7.480;2023-02-01T07:18:47;8.77;;;4.70;;
850;SDS011;412;51.400;7.480;2023-02-01T07:21:14;9.20;;;5.20;;
850;SDS011;412;51.400;7.480;2023-02-01T07:23:40;8.70;;;6.20;;
850;SDS011;412;51.400;7.480;2023-02-01T07:26:06;11.27;;;6.47;;
850;SDS011;412;51.400;7.480;2023-02-01T07:28:34;9.80;;;5.50;;
850;SDS011;412;51.400;7.480;2023-02-01T07:31:11;7.90;;;5.23;;
850;SDS011;412;51.400;7.480;2023-02-01T07:33:43;8.50;;;5.10;;
850;SDS011;412;51.400;7.480;2023-02-01T07:36:13;11.30;;;6.13;;
850;SDS011;412;51.400;7.480;2023-02-01T07:38:41;9.07;;;5.30;;
850;SDS011;412;51.400;7.480;2023-02-01T07:41:07;10.57;;;4.93;;
850;SDS011;412;51.400;7.480;2023-02-01T07:43:34;11.43;;;5.10;;
850;SDS011;412;51.400;7.480;2023-02-01T07:46:00;7.87;;;4.47;;
850;SDS011;412;51.400;7.480;2023-02-01T07:48:26;11.43;;;5.03;;
850;SDS011;412;51.400;7.480;2023-02-01T07:50:56;9.83;;;4.33;;
850;SDS011;412;51.400;7.480;2023-02-01T07:53:23;12.20;;;5.03;;
850;SDS011;412;51.400;7.480;2023-02-01T07:55:49;14.93;;;4.83;;
850;SDS011;412;51.400;7.480;2023-02-01T07:58:15;10.17;;;5.27;;
850;SDS011;412;51.400;7.480;2023-02-01T08:00:40;11.60;;;6.43;;
850;SDS011;412;51.400;7.480;2023-02-01T08:03:25;8.63;;;6.40;;
850;SDS011;412;51.400;7.480;2023-02-01T08:05:54;10.23;;;4.40;;
850;SDS011;412;51.400;7.480;2023-02-01T08:08:21;10.67;;;5.10;;
850;SDS011;412;51.400;7.480;2023-02-01T08:10:47;10.57;;;5.70;;
850;SDS011;412;51.400;7.480;2023-02-01T08:13:13;12.73;;;5.83;;
850;SDS011;412;51.400;7.480;2023-02-01T08:15:39;9.20;;;5.90;;
850;SDS011;412;51.400;7.480;2023-02-01T08:18:04;12.20;;;7.70;;
850;SDS011;412;51.400;7.480;2023-02-01T08:20:30;11.60;;;6.97;;
850;SDS011;412;51.400;7.480;2023-02-01T08:22:56;9.20;;;4.93;;
850;SDS011;412;51.400;7.480;2023-02-01T08:25:23;11.00;;;6.53;;
850;SDS011;412;51.400;7.480;2023-02-01T08:27:49;9.30;;;6.37;;
850;SDS011;412;51.400;7.480;2023-02-01T08:30:15;10.43;;;6.43;;
850;SDS011;412;51.400;7.480;2023-02-01T08:32:41;14.60;;;10.03;;
850;SDS011;412;51.400;7.480;2023-02-01T08:35:06;14.93;;;7.20;;
850;SDS011;412;51.400;7.480;2023-02-01T08:37:33;11.77;;;6.07;;
850;SDS011;412;51.400;7.480;2023-02-01T08:39:59;11.97;;;7.60;;
850;SDS011;412;51.400;7.480;2023-02-01T08:42:24;15.53;;;7.63;;
850;SDS011;412;51.400;7.480;2023-02-01T08:45:09;12.87;;;6.50;;
850;SDS011;412;51.400;7.480;2023-02-01T08:47:35;10.73;;;7.33;;
850;SDS011;412;51.400;7.480;2023-02-01T08:50:01;17.73;;;7.10;;
850;SDS011;412;51.400;7.480;2023-02-01T08:52:26;13.80;;;7.20;;
850;SDS011;412;51.400;7.480;2023-02-01T08:54:52;13.97;;;6.77;;
850;SDS011;412;51.400;7.480;2023-02-01T08:57:18;10.37;;;6.47;;
850;SDS011;412;51.400;7.480;2023-02-01T08:59:44;12.97;;;7.20;;
850;SDS011;412;51.400;7.480;2023-02-01T09:02:13;9.10;;;6.50;;
850;SDS011;412;51.400;7.480;2023-02-01T09:04:40;15.53;;;6.80;;
850;SDS011;412;51.400;7.480;2023-02-01T09:07:06;14.37;;;6.47;;
850;SDS011;412;51.400;7.480;2023-02-01T09:09:33;12.30;;;7.07;;
850;SDS011;412;51.400;7.480;2023-02-01T09:11:59;16.23;;;7.90;;
850;SDS011;412;51.400;7.480;2023-02-01T09:14:25;14.33;;;7.17;;
850;SDS011;412;51.400;7.480;2023-02-01T09:16:50;12.30;;;7.00;;
850;SDS011;412;51.400;7.480;2023-02-01T09:19:16;10.57;;;6.93;;
850;SDS011;412;51.400;7.480;2023-02-01T09:21:42;12.77;;;7.97;;
850;SDS011;412;51.400;7.480;2023-02-01T09:24:10;14.07;;;7.17;;
850;SDS011;412;51.400;7.480;2023-02-01T09:26:37;12.53;;;7.50;;
850;SDS011;412;51.400;7.480;2023-02-01T09:29:03;17.57;;;8.83;;
850;SDS011;412;51.400;7.480;2023-02-01T09:31:29;9.10;;;6.30;;
850;SDS011;412;51.400;7.480;2023-02-01T09:33:55;12.00;;;6.80;;
850;SDS011;412;51.400;7.480;2023-02-01T09:36:21;12.97;;;8.40;;
850;SDS011;412;51.400;7.480;2023-02-01T09:38:48;10.63;;;7.13;;
850;SDS011;412;51.400;7.480;2023-02-01T09:44:22;18.00;;;8.27;;
850;SDS011;412;51.400;7.480;2023-02-01T09:47:16;13.00;;;8.37;;
850;SDS011;412;51.400;7.480;2023-02-01T09:49:54;10.77;;;7.10;;
850;SDS011;412;51.400;7.480;2023-02-01T09:52:36;14.17;;;6.97;;
850;SDS011;412;51.400;7.480;2023-02-01T09:55:12;12.00;;;6.80;;
850;SDS011;412;51.400;7.480;2023-02-01T09:57:53;12.00;;;6.40;;
850;SDS011;412;51.400;7.480;2023-02-01T10:00:27;10.13;;;7.50;;
850;SDS011;412;51.400;7.480;2023-02-01T10:02:57;14.27;;;6.70;;
850;SDS011;412;51.400;7.480;2023-02-01T10:08:40;11.70;;;7.30;;
850;SDS011;412;51.400;7.480;2023-02-01T10:22:46;8.93;;;7.00;;
850;SDS011;412;51.400;7.480;2023-02-01T10:25:36;13.17;;;7.50;;
850;SDS011;412;51.400;7.480;2023-02-01T10:28:10;11.33;;;7.57;;
850;SDS011;412;51.400;7.480;2023-02-01T10:30:42;13.80;;;7.53;;
850;SDS011;412;51.400;7.480;2023-02-01T10:33:18;17.07;;;7.00;;
850;SDS011;412;51.400;7.480;2023-02-01T10:35:50;11.10;;;6.57;;
850;SDS011;412;51.400;7.480;2023-02-01T10:38:30;12.50;;;6.17;;
850;SDS011;412;51.400;7.480;2023-02-01T10:41:00;10.30;;;6.17;;
850;SDS011;412;51.400;7.480;2023-02-01T10:43:48;14.27;;;7.50;;
850;SDS011;412;51.400;7.480;2023-02-01T10:46:25;10.70;;;5.60;;
850;SDS011;412;51.400;7.480;2023-02-01T10:48:52;8.40;;;7.50;;
850;SDS011;412;51.400;7.480;2023-02-01T10:51:21;15.33;;;6.50;;
850;SDS011;412;51.400;7.480;2023-02-01T10:53:58;13.67;;;5.77;;
850;SDS011;412;51.400;7.480;2023-02-01T10:56:28;8.90;;;5.10;;
850;SDS011;412;51.400;7.480;2023-02-01T10:59:02;8.07;;;6.40;;
850;SDS011;412;51.400;7.480;2023-02-01T11:01:40;11.20;;;5.67;;
850;SDS011;412;51.400;7.480;2023-02-01T11:04:09;14.27;;;8.13;;
850;SDS011;412;51.400;7.480;2023-02-01T11:06:41;11.37;;;6.47;;
850;SDS011;412;51.400;7.480;2023-02-01T11:19:37;9.07;;;5.90;;
850;SDS011;412;51.400;7.480;2023-02-01T11:22:03;12.20;;;6.60;;
850;SDS011;412;51.400;7.480;2023-02-01T11:26:59;11.80;;;7.33;;
850;SDS011;412;51.400;7.480;2023-02-01T11:29:37;11.33;;;7.40;;
850;SDS011;412;51.400;7.480;2023-02-01T11:32:10;13.97;;;5.23;;
850;SDS011;412;51.400;7.480;2023-02-01T11:34:40;10.60;;;6.47;;
850;SDS011;412;51.400;7.480;2023-02-01T11:39:43;10.53;;;6.13;;
850;SDS011;412;51.400;7.480;2023-02-01T11:42:34;9.63;;;6.23;;
850;SDS011;412;51.400;7.480;2023-02-01T11:45:19;11.60;;;7.13;;
850;SDS011;412;51.400;7.480;2023-02-01T11:47:53;9.57;;;7.07;;
850;SDS011;412;51.400;7.480;2023-02-01T11:56:18;9.20;;;4.60;;
850;SDS011;412;51.400;7.480;2023-02-01T11:59:14;13.60;;;5.23;;
850;SDS011;412;51.400;7.480;2023-02-01T12:10:37;7.70;;;5.50;;
850;SDS011;412;51.400;7.480;2023-02-01T12:13:45;12.00;;;6.10;;
850;SDS011;412;51.400;7.480;2023-02-01T12:16:23;9.40;;;4.70;;
850;SDS011;412;51.400;7.480;2023-02-01T12:21:31;10.13;;;4.90;;
850;SDS011;412;51.400;7.480;2023-02-01T12:29:35;8.03;;;6.43;;
850;SDS011;412;51.400;7.480;2023-02-01T12:38:54;9.93;;;5.80;;
850;SDS011;412;51.400;7.480;2023-02-01T12:43:49;8.30;;;5.63;;
850;SDS011;412;51.400;7.480;2023-02-01T12:46:40;11.43;;;7.80;;
850;SDS011;412;51.400;7.480;2023-02-01T12:49:15;10.63;;;7.07;;
850;SDS011;412;51.400;7.480;2023-02-01T12:51:42;8.10;;;6.97;;
850;SDS011;412;51.400;7.480;2023-02-01T12:54:25;6.63;;;5.40;;
850;SDS011;412;51.400;7.480;2023-02-01T12:57:00;11.03;;;6.47;;
850;SDS011;412;51.400;7.480;2023-02-01T12:59:44;15.27;;;5.90;;
850;SDS011;412;51.400;7.480;2023-02-01T13:02:22;7.57;;;5.60;;
850;SDS011;412;51.400;7.480;2023-02-01T13:05:11;7.60;;;6.90;;
850;SDS011;412;51.400;7.480;2023-02-01T13:07:43;10.80;;;5.70;;
850;SDS011;412;51.400;7.480;2023-02-01T13:18:56;7.50;;;5.30;;
850;SDS011;412;51.400;7.480;2023-02-01T13:21:30;11.60;;;6.90;;
850;SDS011;412;51.400;7.480;2023-02-01T13:23:59;15.23;;;6.70;;
850;SDS011;412;51.400;7.480;2023-02-01T13:26:24;14.50;;;6.33;;
850;SDS011;412;51.400;7.480;2023-02-01T13:28:56;10.77;;;6.20;;
850;SDS011;412;51.400;7.480;2023-02-01T13:40:29;9.57;;;6.07;;
850;SDS011;412;51.400;7.480;2023-02-01T13:43:16;8.97;;;4.90;;
850;SDS011;412;51.400;7.480;2023-02-01T13:45:48;8.67;;;5.23;;
850;SDS011;412;51.400;7.480;2023-02-01T13:48:30;10.07;;;9.10;;
850;SDS011;412;51.400;7.480;2023-02-01T13:50:59;14.47;;;5.10;;
850;SDS011;412;51.400;7.480;2023-02-01T13:53:29;8.43;;;5.20;;
850;SDS011;412;51.400;7.480;2023-02-01T13:56:06;9.13;;;5.97;;
850;SDS011;412;51.400;7.480;2023-02-01T13:58:42;7.63;;;4.77;;
850;SDS011;412;51.400;7.480;2023-02-01T14:03:48;6.67;;;4.50;;
850;SDS011;412;51.400;7.480;2023-02-01T14:09:12;6.37;;;5.07;;
850;SDS011;412;51.400;7.480;2023-02-01T14:11:45;12.00;;;4.70;;
850;SDS011;412;51.400;7.480;2023-02-01T14:19:29;10.40;;;4.20;;
850;SDS011;412;51.400;7.480;2023-02-01T14:22:00;9.00;;;4.70;;
850;SDS011;412;51.400;7.480;2023-02-01T14:24:53;11.07;;;5.13;;
850;SDS011;412;51.400;7.480;2023-02-01T14:27:21;10.67;;;6.00;;
850;SDS011;412;51.400;7.480;2023-02-01T14:29:51;6.20;;;5.60;;
850;SDS011;412;51.400;7.480;2023-02-01T14:32:33;7.73;;;5.30;;
850;SDS011;412;51.400;7.480;2023-02-01T14:35:06;12.20;;;4.70;;
850;SDS011;412;51.400;7.480;2023-02-01T14:37:42;10.43;;;5.57;;
850;SDS011;412;51.400;7.480;2023-02-01T14:53:13;12.90;;;4.57;;
850;SDS011;412;51.400;7.480;2023-02-01T14:56:05;12.80;;;6.30;;
850;SDS011;412;51.400;7.480;2023-02-01T14:58:37;6.13;;;3.73;;
850;SDS011;412;51.400;7.480;2023-02-01T15:03:52;6.00;;;4.70;;
850;SDS011;412;51.400;7.480;2023-02-01T15:09:44;10.93;;;4.80;;
850;SDS011;412;51.400;7.480;2023-02-01T15:17:24;15.17;;;5.43;;
850;SDS011;412;51.400;7.480;2023-02-01T15:23:02;5.90;;;3.83;;
850;SDS011;412;51.400;7.480;2023-02-01T15:25:33;7.83;;;3.27;;
850;SDS011;412;51.400;7.480;2023-02-01T15:28:02;12.97;;;5.00;;
850;SDS011;412;51.400;7.480;2023-02-01T15:30:29;11.73;;;3.67;;
850;SDS011;412;51.400;7.480;2023-02-01T15:33:07;10.63;;;4.40;;
850;SDS011;412;51.400;7.480;2023-02-01T15:41:07;13.47;;;5.47;;
850;SDS011;412;51.400;7.480;2023-02-01T15:43:41;7.30;;;4.30;;
850;SDS011;412;51.400;7.480;2023-02-01T15:46:35;8.00;;;3.80;;
850;SDS011;412;51.400;7.480;2023-02-01T15:49:03;6.97;;;4.80;;
850;SDS011;412;51.400;7.480;2023-02-01T15:51:30;9.57;;;4.00;;
850;SDS011;412;51.400;7.480;2023-02-01T15:54:06;10.87;;;3.80;;
850;SDS011;412;51.400;7.480;2023-02-01T15:56:39;9.07;;;5.00;;
850;SDS011;412;51.400;7.480;2023-02-01T15:59:12;4.10;;;3.33;;
850;SDS011;412;51.400;7.480;2023-02-01T16:01:44;7.83;;;4.47;;
850;SDS011;412;51.400;7.480;2023-02-01T16:06:46;6.20;;;4.40;;
850;SDS011;412;51.400;7.480;2023-02-01T16:09:15;10.47;;;4.13;;
850;SDS011;412;51.400;7.480;2023-02-01T16:11:54;11.67;;;6.03;;
850;SDS011;412;51.400;7.480;2023-02-01T16:14:22;9.10;;;3.70;;
850;SDS011;412;51.400;7.480;2023-02-01T16:16:49;7.23;;;4.07;;
850;SDS011;412;51.400;7.480;2023-02-01T16:19:15;8.37;;;4.63;;
850;SDS011;412;51.400;7.480;2023-02-01T16:21:41;9.90;;;3.73;;
850;SDS011;412;51.400;7.480;2023-02-01T16:24:07;5.90;;;3.30;;
850;SDS011;412;51.400;7.480;2023-02-01T16:26:33;7.23;;;3.90;;
850;SDS011;412;51.400;7.480;2023-02-01T16:28:59;7.70;;;4.50;;
850;SDS011;412;51.400;7.480;2023-02-01T16:31:31;10.40;;;4.73;;
850;SDS011;412;51.400;7.480;2023-02-01T16:34:00;13.03;;;4.77;;
850;SDS011;412;51.400;7.480;2023-02-01T16:36:26;9.07;;;3.93;;
850;SDS011;412;51.400;7.480;2023-02-01T16:38:53;14.80;;;4.83;;
850;SDS011;412;51.400;7.480;2023-02-01T16:41:21;8.00;;;3.80;;
850;SDS011;412;51.400;7.480;2023-02-01T16:43:52;9.00;;;3.93;;
850;SDS011;412;51.400;7.480;2023-02-01T16:46:19;8.43;;;5.37;;
850;SDS011;412;51.400;7.480;2023-02-01T16:48:53;8.77;;;5.40;;
850;SDS011;412;51.400;7.480;2023-02-01T16:51:21;7.20;;;3.90;;
850;SDS011;412;51.400;7.480;2023-02-01T16:53:49;8.13;;;4.60;;
850;SDS011;412;51.400;7.480;2023-02-01T16:58:57;13.03;;;4.50;;
850;SDS011;412;51.400;7.480;2023-02-01T17:01:24;10.70;;;4.43;;
850;SDS011;412;51.400;7.480;2023-02-01T17:03:50;9.10;;;5.30;;
850;SDS011;412;51.400;7.480;2023-02-01T17:06:17;8.07;;;5.10;;
850;SDS011;412;51.400;7.480;2023-02-01T17:08:55;10.50;;;5.60;;
850;SDS011;412;51.400;7.480;2023-02-01T17:11:23;5.60;;;4.83;;
850;SDS011;412;51.400;7.480;2023-02-01T17:13:49;8.90;;;6.00;;
850;SDS011;412;51.400;7.480;2023-02-01T17:18:54;10.90;;;6.00;;
850;SDS011;412;51.400;7.480;2023-02-01T17:21:25;9.77;;;5.10;;
850;SDS011;412;51.400;7.480;2023-02-01T17:23:54;7.10;;;4.90;;
850;SDS011;412;51.400;7.480;2023-02-01T17:26:20;11.37;;;6.73;;
850;SDS011;412;51.400;7.480;2023-02-01T17:28:46;12.07;;;5.37;;
850;SDS011;412;51.400;7.480;2023-02-01T17:31:12;8.90;;;4.70;;
850;SDS011;412;51.400;7.480;2023-02-01T17:33:42;8.03;;;3.63;;
850;SDS011;412;51.400;7.480;2023-02-01T17:36:10;4.33;;;3.70;;
850;SDS011;412;51.400;7.480;2023-02-01T17:38:38;9.47;;;3.53;;
850;SDS011;412;51.400;7.480;2023-02-01T17:41:04;5.40;;;3.97;;
850;SDS011;412;51.400;7.480;2023-02-01T17:43:29;5.80;;;5.30;;
850;SDS011;412;51.400;7.480;2023-02-01T17:46:06;9.40;;;4.77;;
850;SDS011;412;51.400;7.480;2023-02-01T17:48:36;4.80;;;4.27;;
850;SDS011;412;51.400;7.480;2023-02-01T17:51:03;4.30;;;3.80;;
850;SDS011;412;51.400;7.480;2023-02-01T17:53:29;4.77;;;4.13;;
850;SDS011;412;51.400;7.480;2023-02-01T17:55:55;5.97;;;4.37;;
850;SDS011;412;51.400;7.480;2023-02-01T17:58:25;7.03;;;6.30;;
850;SDS011;412;51.400;7.480;2023-02-01T18:00:54;9.53;;;6.47;;
850;SDS011;412;51.400;7.480;2023-02-01T18:03:21;7.77;;;6.00;;
850;SDS011;412;51.400;7.480;2023-02-01T18:05:52;7.40;;;6.23;;
850;SDS011;412;51.400;7.480;2023-02-01T18:08:20;9.50;;;6.67;;
850;SDS011;412;51.400;7.480;2023-02-01T18:10:48;10.10;;;7.30;;
850;SDS011;412;51.400;7.480;2023-02-01T18:13:24;8.43;;;7.63;;
850;SDS011;412;51.400;7.480;2023-02-01T18:15:55;9.03;;;8.03;;
850;SDS011;412;51.400;7.480;2023-02-01T18:18:23;10.20;;;7.77;;
850;SDS011;412;51.400;7.480;2023-02-01T18:20:48;8.93;;;7.30;;
850;SDS011;412;51.400;7.480;2023-02-01T18:23:18;9.10;;;6.00;;
850;SDS011;412;51.400;7.480;2023-02-01T18:25:46;9.10;;;6.10;;
850;SDS011;412;51.400;7.480;2023-02-01T18:28:13;12.50;;;6.40;;
850;SDS011;412;51.400;7.480;2023-02-01T18:30:40;13.00;;;5.70;;
850;SDS011;412;51.400;7.480;2023-02-01T18:33:14;12.43;;;5.97;;
850;SDS011;412;51.400;7.480;2023-02-01T18:35:41;11.70;;;6.37;;
850;SDS011;412;51.400;7.480;2023-02-01T18:38:08;17.23;;;5.97;;
850;SDS011;412;51.400;7.480;2023-02-01T18:40:35;15.43;;;5.80;;